createdAt,value
2023-01-25T00:00:53.942Z,18.83
2023-01-25T00:03:22.148Z,18.90
2023-01-25T00:05:50.222Z,18.30
2023-01-25T00:08:18.275Z,17.43
2023-01-25T00:10:46.292Z,20.43
2023-01-25T00:13:15.748Z,19.70
2023-01-25T00:15:43.805Z,19.63
2023-01-25T00:18:11.850Z,19.67
2023-01-25T00:20:39.903Z,17.53
2023-01-25T00:23:07.959Z,18.80
2023-01-25T00:25:35.988Z,19.30
2023-01-25T00:28:04.083Z,19.43
2023-01-25T00:30:33.511Z,19.47
2023-01-25T00:33:07.814Z,17.70
2023-01-25T00:35:36.124Z,18.17
2023-01-25T00:38:15.297Z,19.20
2023-01-25T00:40:43.357Z,17.00
2023-01-25T00:43:11.400Z,16.43
2023-01-25T00:45:40.970Z,20.20
2023-01-25T00:48:10.280Z,19.90
2023-01-25T00:50:38.448Z,18.93
2023-01-25T00:53:06.568Z,17.47
2023-01-25T00:55:34.638Z,18.70
2023-01-25T00:58:02.681Z,16.27
2023-01-25T01:00:30.780Z,16.37
2023-01-25T01:03:00.185Z,18.03
2023-01-25T01:05:29.485Z,17.63
2023-01-25T01:07:57.727Z,18.80
2023-01-25T01:10:25.785Z,19.43
2023-01-25T01:12:53.830Z,18.80
2023-01-25T01:15:22.130Z,16.83
2023-01-25T01:17:50.185Z,18.00
2023-01-25T01:20:19.825Z,18.37
2023-01-25T01:22:47.881Z,16.27
2023-01-25T01:25:16.000Z,18.57
2023-01-25T01:27:44.115Z,18.33
2023-01-25T01:30:13.084Z,18.20
2023-01-25T01:32:41.251Z,20.80
2023-01-25T01:35:10.322Z,18.43
2023-01-25T01:37:43.944Z,18.70
2023-01-25T01:40:15.614Z,19.43
2023-01-25T01:43:01.104Z,17.13
2023-01-25T01:45:50.681Z,19.03
2023-01-25T01:48:22.502Z,17.43
2023-01-25T01:50:54.677Z,17.97
2023-01-25T01:53:26.671Z,19.67
2023-01-25T01:56:00.692Z,17.93
2023-01-25T01:58:30.027Z,18.43
2023-01-25T02:00:58.328Z,19.20
2023-01-25T02:03:27.533Z,17.93
2023-01-25T02:05:59.445Z,17.73
2023-01-25T02:08:31.857Z,21.33
2023-01-25T02:11:00.251Z,19.00
2023-01-25T02:13:29.061Z,17.27
2023-01-25T02:15:57.434Z,18.60
2023-01-25T02:18:26.421Z,18.50
2023-01-25T02:20:57.866Z,19.37
2023-01-25T02:23:32.632Z,18.90
2023-01-25T02:26:05.299Z,21.13
2023-01-25T02:28:37.432Z,19.00
2023-01-25T02:31:05.910Z,17.30
2023-01-25T02:33:34.146Z,16.60
2023-01-25T02:36:18.680Z,19.00
2023-01-25T02:38:52.559Z,18.43
2023-01-25T02:41:26.793Z,18.90
2023-01-25T02:43:54.838Z,18.97
2023-01-25T02:46:27.688Z,20.37
2023-01-25T02:48:56.734Z,18.07
2023-01-25T02:51:26.828Z,18.23
2023-01-25T02:53:55.103Z,17.67
2023-01-25T02:56:25.117Z,17.67
2023-01-25T02:58:53.607Z,17.47
2023-01-25T03:01:21.870Z,17.60
2023-01-25T03:03:49.998Z,15.53
2023-01-25T03:06:18.149Z,18.07
2023-01-25T03:08:46.152Z,18.70
2023-01-25T03:11:14.203Z,17.47
2023-01-25T03:13:43.612Z,19.47
2023-01-25T03:16:13.542Z,16.70
2023-01-25T03:18:42.330Z,20.33
2023-01-25T03:21:12.807Z,22.27
2023-01-25T03:23:41.647Z,21.33
2023-01-25T03:26:12.071Z,20.10
2023-01-25T03:28:41.344Z,19.50
2023-01-25T03:31:12.753Z,18.07
2023-01-25T03:33:41.907Z,19.87
2023-01-25T03:36:11.045Z,22.97
2023-01-25T03:38:39.166Z,19.30
2023-01-25T03:41:07.953Z,19.30
2023-01-25T03:43:36.004Z,17.03
2023-01-25T03:46:04.250Z,17.53
2023-01-25T03:48:33.702Z,18.20
2023-01-25T03:51:02.038Z,18.23
2023-01-25T03:53:31.370Z,18.70
2023-01-25T03:56:01.802Z,24.23
2023-01-25T03:58:30.325Z,19.17
2023-01-25T04:00:59.875Z,18.77
2023-01-25T04:03:30.331Z,17.43
2023-01-25T04:06:01.310Z,16.30
2023-01-25T04:08:29.937Z,16.30
2023-01-25T04:11:01.356Z,16.50
2023-01-25T04:13:30.181Z,18.43
2023-01-25T04:15:58.612Z,17.47
2023-01-25T04:18:26.660Z,19.17
2023-01-25T04:20:56.111Z,16.50
2023-01-25T04:23:27.021Z,18.20
2023-01-25T04:25:55.711Z,16.40
2023-01-25T04:28:24.145Z,18.73
2023-01-25T04:30:52.874Z,17.27
2023-01-25T04:33:20.921Z,19.43
2023-01-25T04:35:49.108Z,16.07
2023-01-25T04:38:18.021Z,18.70
2023-01-25T04:40:47.529Z,17.40
2023-01-25T04:43:16.740Z,15.23
2023-01-25T04:45:44.951Z,17.40
2023-01-25T04:48:15.230Z,16.37
2023-01-25T04:50:44.251Z,17.40
2023-01-25T04:53:13.719Z,16.90
2023-01-25T04:55:41.955Z,15.40
2023-01-25T04:58:11.352Z,16.47
2023-01-25T05:00:39.625Z,16.83
2023-01-25T05:03:07.672Z,15.87
2023-01-25T05:05:35.837Z,16.87
2023-01-25T05:08:03.876Z,20.37
2023-01-25T05:10:31.947Z,17.80
2023-01-25T05:13:00.008Z,19.00
2023-01-25T05:15:29.433Z,15.50
2023-01-25T05:17:57.470Z,15.80
2023-01-25T05:20:25.514Z,16.93
2023-01-25T05:22:53.559Z,19.23
2023-01-25T05:25:39.142Z,19.40
2023-01-25T05:28:07.718Z,17.07
2023-01-25T05:30:37.295Z,14.50
2023-01-25T05:33:05.426Z,16.93
2023-01-25T05:35:33.537Z,18.13
2023-01-25T05:38:01.743Z,16.70
2023-01-25T05:40:29.858Z,13.90
2023-01-25T05:42:59.755Z,15.20
2023-01-25T05:45:30.114Z,16.50
2023-01-25T05:48:00.130Z,22.60
2023-01-25T05:50:28.596Z,18.13
2023-01-25T05:52:56.633Z,20.20
2023-01-25T05:55:24.757Z,20.13
2023-01-25T05:57:55.997Z,20.07
2023-01-25T06:00:24.667Z,20.27
2023-01-25T06:02:52.897Z,18.23
2023-01-25T06:05:22.506Z,17.40
2023-01-25T06:07:50.522Z,18.87
2023-01-25T06:10:18.731Z,20.50
2023-01-25T06:12:46.838Z,17.93
2023-01-25T06:15:15.067Z,22.37
2023-01-25T06:17:43.106Z,18.50
2023-01-25T06:20:12.219Z,22.83
2023-01-25T06:22:41.633Z,26.27
2023-01-25T06:25:10.912Z,76.03
2023-01-25T06:27:39.250Z,25.00
2023-01-25T06:30:08.309Z,33.50
2023-01-25T06:32:36.344Z,18.33
2023-01-25T06:35:04.791Z,20.97
2023-01-25T06:37:32.907Z,20.03
2023-01-25T06:40:02.300Z,27.50
2023-01-25T06:42:30.417Z,33.90
2023-01-25T06:44:58.543Z,18.60
2023-01-25T06:47:26.679Z,17.13
2023-01-25T06:49:54.701Z,21.93
2023-01-25T06:52:22.771Z,27.47
2023-01-25T06:54:50.852Z,22.10
2023-01-25T06:57:20.322Z,21.00
2023-01-25T06:59:48.353Z,24.80
2023-01-25T07:02:17.166Z,20.03
2023-01-25T07:04:45.269Z,26.50
2023-01-25T07:07:13.386Z,19.37
2023-01-25T07:09:41.549Z,22.53
2023-01-25T07:12:09.735Z,23.23
2023-01-25T07:14:39.119Z,18.10
2023-01-25T07:17:07.191Z,18.90
2023-01-25T07:19:35.251Z,19.67
2023-01-25T07:22:03.580Z,17.10
2023-01-25T07:24:31.829Z,16.60
2023-01-25T07:27:00.009Z,17.03
2023-01-25T07:29:28.110Z,15.80
2023-01-25T07:31:57.625Z,18.03
2023-01-25T07:34:25.828Z,15.80
2023-01-25T07:36:53.913Z,18.10
2023-01-25T07:39:21.985Z,14.57
2023-01-25T07:41:50.052Z,14.93
2023-01-25T07:44:18.118Z,15.27
2023-01-25T07:46:46.168Z,18.73
2023-01-25T07:49:15.617Z,18.50
2023-01-25T07:51:43.781Z,16.70
2023-01-25T07:54:13.114Z,16.97
2023-01-25T07:56:41.499Z,17.17
2023-01-25T07:59:11.051Z,14.73
2023-01-25T08:01:40.631Z,16.83
2023-01-25T08:04:09.370Z,14.13
2023-01-25T08:06:39.920Z,17.40
2023-01-25T08:09:12.054Z,17.93
2023-01-25T08:11:40.580Z,17.33
2023-01-25T08:14:09.173Z,18.07
2023-01-25T08:16:37.349Z,15.13
2023-01-25T08:19:05.964Z,18.57
2023-01-25T08:21:35.806Z,23.67
2023-01-25T08:24:07.371Z,21.43
2023-01-25T08:26:36.850Z,18.30
2023-01-25T08:29:05.584Z,22.03
2023-01-25T08:31:35.692Z,24.07
2023-01-25T08:34:03.938Z,20.00
2023-01-25T08:36:32.133Z,18.37
2023-01-25T08:39:01.416Z,26.10
2023-01-25T08:41:32.350Z,20.43
2023-01-25T08:44:01.090Z,26.77
2023-01-25T08:46:32.102Z,19.50
2023-01-25T08:49:01.856Z,16.63
2023-01-25T08:51:31.620Z,12.30
2023-01-25T08:54:04.061Z,11.23
2023-01-25T08:56:33.886Z,12.07
2023-01-25T08:59:01.981Z,14.97
2023-01-25T09:01:30.106Z,12.97
2023-01-25T09:03:58.271Z,13.93
2023-01-25T09:06:26.676Z,12.17
2023-01-25T09:08:54.839Z,15.23
2023-01-25T09:11:24.303Z,11.40
2023-01-25T09:13:53.972Z,12.27
2023-01-25T09:16:28.729Z,9.83
2023-01-25T09:18:59.232Z,11.27
2023-01-25T09:21:27.492Z,12.70
2023-01-25T09:24:11.470Z,10.30
2023-01-25T09:26:42.937Z,9.03
2023-01-25T09:29:14.381Z,9.27
2023-01-25T09:31:43.860Z,9.90
2023-01-25T09:34:13.197Z,10.80
2023-01-25T09:36:41.261Z,10.30
2023-01-25T09:39:12.198Z,10.90
2023-01-25T09:42:23.285Z,13.03
2023-01-25T09:45:12.803Z,12.40
2023-01-25T09:47:49.007Z,12.60
2023-01-25T09:50:37.224Z,12.37
2023-01-25T09:53:22.641Z,10.60
2023-01-25T09:55:54.059Z,12.90
2023-01-25T09:58:25.386Z,11.57
2023-01-25T10:01:09.612Z,12.47
2023-01-25T10:03:48.932Z,10.67
2023-01-25T10:06:19.046Z,12.47
2023-01-25T10:08:55.058Z,11.33
2023-01-25T10:11:27.192Z,11.07
2023-01-25T10:13:57.070Z,13.17
2023-01-25T10:16:32.831Z,13.30
2023-01-25T10:19:13.615Z,10.90
2023-01-25T10:21:44.674Z,11.70
2023-01-25T10:24:40.891Z,9.43
2023-01-25T10:27:21.191Z,11.93
2023-01-25T10:29:51.335Z,9.30
2023-01-25T10:32:26.829Z,10.87
2023-01-25T10:34:57.857Z,9.73
2023-01-25T10:37:30.104Z,10.73
2023-01-25T10:40:04.261Z,11.27
2023-01-25T10:42:42.608Z,10.83
2023-01-25T10:45:13.714Z,12.90
2023-01-25T10:47:47.019Z,11.50
2023-01-25T10:50:49.345Z,13.37
2023-01-25T10:53:27.276Z,14.27
2023-01-25T10:56:13.248Z,11.13
2023-01-25T10:58:43.737Z,12.53
2023-01-25T11:01:15.485Z,15.20
2023-01-25T11:03:45.900Z,11.50
2023-01-25T11:06:14.225Z,12.10
2023-01-25T11:08:43.580Z,11.97
2023-01-25T11:11:24.458Z,12.00
2023-01-25T11:13:54.915Z,9.70
2023-01-25T11:16:34.683Z,10.63
2023-01-25T11:19:24.886Z,9.37
2023-01-25T11:21:54.171Z,9.97
2023-01-25T11:24:22.505Z,10.03
2023-01-25T11:26:50.560Z,10.87
2023-01-25T11:29:20.200Z,12.27
2023-01-25T11:31:50.442Z,12.50
2023-01-25T11:34:23.127Z,10.53
2023-01-25T11:37:20.156Z,12.60
2023-01-25T11:39:58.739Z,12.63
2023-01-25T11:42:35.399Z,12.73
2023-01-25T11:45:47.333Z,13.10
2023-01-25T11:48:31.768Z,10.63
2023-01-25T11:51:07.155Z,11.27
2023-01-25T11:54:10.595Z,13.73
2023-01-25T11:56:51.865Z,11.40
2023-01-25T11:59:45.407Z,10.43
2023-01-25T12:02:36.684Z,13.90
2023-01-25T12:05:22.096Z,11.60
2023-01-25T12:08:01.202Z,14.03
2023-01-25T12:10:41.317Z,16.07
2023-01-25T12:13:16.179Z,12.87
2023-01-25T12:16:02.168Z,11.83
2023-01-25T12:19:01.141Z,11.90
2023-01-25T12:21:45.194Z,14.37
2023-01-25T12:24:28.187Z,13.80
2023-01-25T12:27:02.799Z,14.50
2023-01-25T12:29:36.357Z,12.97
2023-01-25T12:32:10.468Z,14.50
2023-01-25T12:34:40.770Z,16.33
2023-01-25T12:37:17.326Z,13.77
2023-01-25T12:39:55.004Z,18.37
2023-01-25T12:42:26.315Z,17.43
2023-01-25T12:44:59.549Z,15.93
2023-01-25T12:47:36.145Z,13.37
2023-01-25T12:50:14.571Z,14.13
2023-01-25T12:52:46.971Z,14.00
2023-01-25T12:55:18.367Z,11.07
2023-01-25T12:57:57.706Z,12.10
2023-01-25T13:00:34.517Z,13.10
2023-01-25T13:03:17.477Z,17.43
2023-01-25T13:05:52.283Z,15.03
2023-01-25T13:08:32.467Z,14.73
2023-01-25T13:11:11.426Z,14.33
2023-01-25T13:13:39.609Z,11.83
2023-01-25T13:16:34.758Z,15.13
2023-01-25T13:19:03.212Z,14.60
2023-01-25T13:21:44.948Z,15.73
2023-01-25T13:24:25.122Z,14.03
2023-01-25T13:27:03.412Z,15.90
2023-01-25T13:29:56.467Z,15.03
2023-01-25T13:33:07.607Z,15.67
2023-01-25T13:35:46.187Z,15.33
2023-01-25T13:38:32.252Z,16.37
2023-01-25T13:41:24.227Z,15.23
2023-01-25T13:44:14.036Z,13.63
2023-01-25T13:46:42.145Z,14.90
2023-01-25T13:49:23.673Z,13.87
2023-01-25T13:51:51.850Z,14.70
2023-01-25T13:54:19.938Z,17.20
2023-01-25T13:56:48.097Z,13.63
2023-01-25T13:59:28.005Z,14.07
2023-01-25T14:01:57.308Z,17.03
2023-01-25T14:04:25.677Z,15.73
2023-01-25T14:06:58.282Z,14.17
2023-01-25T14:09:26.507Z,15.03
2023-01-25T14:11:57.142Z,14.10
2023-01-25T14:14:29.390Z,15.03
2023-01-25T14:17:11.048Z,14.37
2023-01-25T14:19:41.025Z,16.43
2023-01-25T14:22:30.754Z,12.63
2023-01-25T14:25:08.469Z,15.13
2023-01-25T14:27:38.224Z,17.63
2023-01-25T14:30:16.499Z,16.73
2023-01-25T14:32:44.616Z,17.07
2023-01-25T14:35:54.800Z,15.93
2023-01-25T14:38:32.826Z,17.07
2023-01-25T14:41:06.989Z,19.53
2023-01-25T14:43:37.708Z,17.13
2023-01-25T14:46:21.739Z,16.67
2023-01-25T14:48:50.300Z,18.37
2023-01-25T14:51:26.079Z,17.43
2023-01-25T14:54:00.945Z,17.30
2023-01-25T14:56:43.324Z,17.60
2023-01-25T14:59:33.755Z,16.07
2023-01-25T15:02:05.761Z,21.23
2023-01-25T15:04:35.482Z,15.33
2023-01-25T15:07:16.811Z,23.10
2023-01-25T15:10:04.849Z,35.53
2023-01-25T15:12:33.931Z,18.07
2023-01-25T15:15:02.874Z,19.77
2023-01-25T15:17:44.120Z,16.57
2023-01-25T15:20:36.562Z,17.50
2023-01-25T15:23:24.387Z,18.40
2023-01-25T15:25:54.414Z,17.23
2023-01-25T15:28:23.358Z,19.53
2023-01-25T15:30:52.033Z,39.50
2023-01-25T15:33:24.557Z,20.10
2023-01-25T15:35:53.502Z,52.67
2023-01-25T15:38:22.932Z,18.77
2023-01-25T15:40:51.042Z,35.00
2023-01-25T15:43:20.825Z,18.63
2023-01-25T15:45:51.850Z,31.47
2023-01-25T15:48:29.281Z,19.53
2023-01-25T15:50:57.621Z,32.43
2023-01-25T15:53:26.324Z,20.10
2023-01-25T15:55:58.641Z,27.40
2023-01-25T15:58:29.267Z,17.27
2023-01-25T16:00:57.468Z,23.13
2023-01-25T16:03:27.094Z,23.80
2023-01-25T16:05:59.308Z,34.53
2023-01-25T16:08:27.964Z,171.37
2023-01-25T16:10:56.269Z,37.27
2023-01-25T16:13:24.964Z,220.10
2023-01-25T16:15:55.289Z,124.40
2023-01-25T16:18:23.711Z,184.67
2023-01-25T16:20:53.269Z,22.20
2023-01-25T16:23:21.330Z,108.60
2023-01-25T16:25:49.873Z,17.70
2023-01-25T16:28:20.890Z,47.43
2023-01-25T16:30:49.891Z,25.80
2023-01-25T16:33:24.273Z,87.30
2023-01-25T16:36:05.150Z,44.00
2023-01-25T16:38:33.354Z,58.67
2023-01-25T16:41:01.549Z,143.83
2023-01-25T16:43:42.090Z,79.03
2023-01-25T16:46:17.477Z,25.53
2023-01-25T16:48:46.123Z,57.63
2023-01-25T16:51:20.299Z,50.07
2023-01-25T16:53:49.760Z,96.70
2023-01-25T16:56:22.105Z,36.10
2023-01-25T16:58:51.693Z,32.90
2023-01-25T17:01:21.145Z,41.80
2023-01-25T17:03:49.885Z,56.30
2023-01-25T17:06:21.228Z,85.67
2023-01-25T17:08:49.970Z,55.73
2023-01-25T17:11:19.962Z,57.67
2023-01-25T17:13:50.376Z,17.77
2023-01-25T17:16:20.055Z,157.70
2023-01-25T17:21:41.138Z,28.20
2023-01-25T17:24:09.363Z,35.50
2023-01-25T17:26:40.823Z,96.23
2023-01-25T17:29:39.019Z,104.97
2023-01-25T17:32:09.797Z,51.67
2023-01-25T17:34:43.722Z,102.00
2023-01-25T17:37:44.416Z,185.17
2023-01-25T17:40:27.764Z,115.63
2023-01-25T17:42:56.008Z,69.50
2023-01-25T17:45:24.136Z,230.70
2023-01-25T17:50:46.764Z,185.37
2023-01-25T17:53:16.480Z,119.47
2023-01-25T17:56:29.405Z,93.60
2023-01-25T17:58:58.430Z,29.80
2023-01-25T18:01:29.498Z,146.70
2023-01-25T18:03:58.128Z,195.90
2023-01-25T18:06:55.767Z,188.77
2023-01-25T18:09:51.222Z,183.17
2023-01-25T18:12:20.647Z,214.43
2023-01-25T18:17:39.148Z,73.20
2023-01-25T18:20:10.659Z,182.73
2023-01-25T18:22:38.864Z,116.17
2023-01-25T18:25:27.885Z,84.17
2023-01-25T18:27:56.113Z,86.00
2023-01-25T18:30:32.973Z,101.67
2023-01-25T18:33:01.694Z,21.40
2023-01-25T18:35:30.313Z,38.03
2023-01-25T18:37:58.472Z,129.90
2023-01-25T18:40:29.916Z,85.83
2023-01-25T18:46:01.096Z,21.43
2023-01-25T18:48:31.532Z,27.03
2023-01-25T18:50:59.870Z,20.63
2023-01-25T18:53:28.341Z,25.13
2023-01-25T18:56:02.056Z,24.63
2023-01-25T18:58:32.579Z,24.63
2023-01-25T19:01:06.721Z,35.83
2023-01-25T19:03:34.844Z,17.77
2023-01-25T19:06:03.318Z,26.37
2023-01-25T19:08:33.084Z,102.83
2023-01-25T19:11:03.842Z,105.50
2023-01-25T19:13:34.508Z,96.13
2023-01-25T19:16:04.263Z,26.50
2023-01-25T19:18:33.902Z,24.13
2023-01-25T19:21:02.081Z,23.73
2023-01-25T19:23:35.267Z,35.57
2023-01-25T19:26:05.919Z,38.90
2023-01-25T19:28:34.828Z,68.53
2023-01-25T19:31:07.585Z,43.50
2023-01-25T19:33:36.509Z,144.73
2023-01-25T19:36:06.723Z,33.93
2023-01-25T19:38:38.807Z,26.07
2023-01-25T19:41:09.992Z,38.50
2023-01-25T19:43:38.376Z,31.77
2023-01-25T19:46:36.725Z,38.67
2023-01-25T19:49:06.787Z,38.33
2023-01-25T19:51:37.418Z,25.07
2023-01-25T19:54:07.361Z,38.80
2023-01-25T19:56:39.166Z,28.03
2023-01-25T19:59:09.446Z,26.23
2023-01-25T20:01:37.866Z,47.40
2023-01-25T20:04:08.049Z,42.63
2023-01-25T20:06:36.629Z,37.77
2023-01-25T20:09:05.329Z,25.17
2023-01-25T20:11:34.138Z,22.57
2023-01-25T20:14:05.982Z,23.63
2023-01-25T20:16:37.858Z,19.60
2023-01-25T20:19:06.019Z,19.93
2023-01-25T20:21:35.349Z,20.63
2023-01-25T20:24:07.023Z,20.93
2023-01-25T20:26:38.987Z,22.40
2023-01-25T20:29:09.289Z,16.20
2023-01-25T20:31:39.313Z,13.97
2023-01-25T20:34:09.735Z,12.63
2023-01-25T20:36:38.005Z,13.43
2023-01-25T20:39:07.291Z,12.13
2023-01-25T20:41:36.208Z,10.87
2023-01-25T20:44:08.694Z,13.90
2023-01-25T20:46:39.612Z,11.70
2023-01-25T20:49:10.353Z,11.50
2023-01-25T20:51:38.391Z,12.10
2023-01-25T20:54:07.115Z,21.63
2023-01-25T20:56:36.035Z,18.53
2023-01-25T20:59:04.433Z,14.53
2023-01-25T21:01:36.788Z,16.93
2023-01-25T21:04:07.977Z,23.90
2023-01-25T21:06:36.582Z,16.00
2023-01-25T21:09:05.515Z,30.33
2023-01-25T21:11:34.605Z,46.13
2023-01-25T21:14:02.720Z,15.53
2023-01-25T21:16:30.893Z,13.03
2023-01-25T21:19:01.353Z,10.67
2023-01-25T21:21:33.065Z,10.10
2023-01-25T21:24:02.649Z,9.90
2023-01-25T21:26:32.298Z,17.03
2023-01-25T21:29:01.792Z,41.50
2023-01-25T21:31:32.803Z,14.03
2023-01-25T21:34:01.792Z,9.97
2023-01-25T21:36:31.543Z,9.63
2023-01-25T21:39:00.151Z,9.27
2023-01-25T21:41:30.220Z,6.80
2023-01-25T21:44:17.553Z,9.90
2023-01-25T21:47:06.053Z,7.90
2023-01-25T21:49:51.826Z,8.53
2023-01-25T21:52:21.449Z,8.37
2023-01-25T21:54:49.505Z,7.23
2023-01-25T21:57:17.584Z,8.03
2023-01-25T21:59:45.644Z,8.70
2023-01-25T22:02:15.737Z,10.13
2023-01-25T22:04:44.007Z,10.73
2023-01-25T22:07:12.697Z,10.37
2023-01-25T22:09:42.264Z,9.10
2023-01-25T22:12:11.782Z,8.20
2023-01-25T22:14:39.887Z,11.93
2023-01-25T22:17:08.013Z,10.27
2023-01-25T22:19:36.163Z,10.53
2023-01-25T22:22:04.283Z,13.87
2023-01-25T22:24:32.352Z,14.10
2023-01-25T22:27:28.851Z,7.53
2023-01-25T22:29:56.912Z,8.50
2023-01-25T22:32:25.035Z,8.03
2023-01-25T22:34:53.150Z,8.23
2023-01-25T22:37:21.254Z,8.63
2023-01-25T22:39:49.358Z,7.60
2023-01-25T22:42:18.787Z,8.77
2023-01-25T22:44:46.807Z,7.47
2023-01-25T22:47:14.899Z,8.70
2023-01-25T22:49:43.109Z,7.63
2023-01-25T22:52:11.307Z,5.97
2023-01-25T22:54:39.377Z,5.17
2023-01-25T22:57:07.519Z,5.10
2023-01-25T22:59:36.940Z,5.43
2023-01-25T23:02:05.002Z,4.73
2023-01-25T23:04:33.119Z,8.20
2023-01-25T23:07:12.249Z,22.90
2023-01-25T23:09:41.567Z,6.07
2023-01-25T23:12:09.987Z,6.77
2023-01-25T23:14:51.298Z,10.37
2023-01-25T23:17:37.740Z,5.00
2023-01-25T23:20:06.854Z,5.43
2023-01-25T23:22:34.937Z,5.67
2023-01-25T23:25:02.991Z,6.83
2023-01-25T23:27:31.046Z,4.00
2023-01-25T23:30:00.449Z,5.50
2023-01-25T23:32:29.322Z,5.80
2023-01-25T23:34:57.615Z,5.13
2023-01-25T23:37:25.686Z,5.67
2023-01-25T23:39:54.159Z,5.53
2023-01-25T23:42:22.531Z,5.03
2023-01-25T23:44:51.106Z,4.63
2023-01-25T23:47:20.860Z,5.00
2023-01-25T23:49:49.218Z,5.23
2023-01-25T23:52:17.598Z,5.27
2023-01-25T23:54:46.491Z,3.17
2023-01-25T23:57:15.525Z,5.60
2023-01-25T23:59:44.444Z,5.03
